Time;durP1;ratioP1;P1;durP2;ratioP2;P2;SDS_P1;SDS_P2;PMS_P1;PMS_P2;Temp;Humidity;BMP_temperature;BMP_pressure;BME280_temperature;BME280_humidity;BME280_pressure;Samples;Min_cycle;Max_cycle;Signal;HPM_P1;HPM_P2
2023/02/14 00:01:13;;;;;;;16.27;7.55;;;8.70;62.60;;;;;;20921670;28;20059;-62
2023/02/14 00:11:14;;;;;;;12.02;7.07;;;8.60;62.60;;;;;;20921222;28;20523;-60
2023/02/14 00:21:16;;;;;;;12.40;7.15;;;8.50;62.40;;;;;;20920460;28;20059;-59
2023/02/14 00:31:18;;;;;;;11.52;7.78;;;8.50;62.30;;;;;;20920013;28;20055;-60
2023/02/14 00:41:20;;;;;;;13.68;7.72;;;8.40;62.20;;;;;;20919034;28;20045;-61
2023/02/14 00:51:22;;;;;;;11.70;6.82;;;8.30;62.20;;;;;;20919764;28;20060;-59
2023/02/14 01:01:23;;;;;;;12.50;6.57;;;8.30;62.00;;;;;;20918895;28;20049;-58
2023/02/14 01:11:25;;;;;;;10.30;6.68;;;8.30;62.10;;;;;;20916224;28;20075;-58
2023/02/14 01:21:32;;;;;;;13.82;6.97;;;8.30;62.10;;;;;;20916948;28;20412;-59
2023/02/14 01:31:34;;;;;;;13.10;6.95;;;8.30;62.30;;;;;;20916352;28;20055;-58
2023/02/14 01:41:37;;;;;;;9.63;6.95;;;8.20;62.60;;;;;;20915785;28;20543;-59
2023/02/14 01:51:45;;;;;;;10.90;6.95;;;8.20;62.60;;;;;;20914228;28;20045;-58
2023/02/14 02:01:49;;;;;;;13.63;6.72;;;8.30;62.60;;;;;;20914794;28;20053;-58
2023/02/14 02:11:51;;;;;;;10.88;6.70;;;8.20;62.60;;;;;;20913179;28;20087;-60
2023/02/14 02:22:11;;;;;;;9.88;6.68;;;8.20;62.10;;;;;;20912455;28;20053;-58
2023/02/14 02:32:23;;;;;;;9.52;6.13;;;8.10;62.20;;;;;;20929917;28;20049;-60
2023/02/14 02:42:42;;;;;;;12.23;6.68;;;8.10;62.40;;;;;;20930334;28;20118;-61
2023/02/14 02:53:20;;;;;;;12.27;6.63;;;8.20;62.50;;;;;;20929196;28;20551;-61
2023/02/14 03:14:28;;;;;;;11.70;6.65;;;8.30;63.20;;;;;;20927320;28;20412;-58
2023/02/14 03:24:43;;;;;;;10.30;6.50;;;8.30;62.70;;;;;;20834952;28;20535;-57
2023/02/14 03:34:59;;;;;;;9.23;6.30;;;8.30;62.70;;;;;;20833290;28;20140;-59
2023/02/14 03:45:05;;;;;;;9.02;6.57;;;8.30;61.90;;;;;;20832567;28;20484;-59
2023/02/14 03:55:08;;;;;;;11.80;7.63;;;8.20;62.50;;;;;;20854682;28;20378;-57
2023/02/14 04:05:18;;;;;;;13.02;6.88;;;8.10;62.50;;;;;;20923937;28;20098;-59
2023/02/14 04:15:20;;;;;;;11.77;9.07;;;8.00;63.10;;;;;;20923356;28;20078;-59
2023/02/14 04:25:23;;;;;;;9.93;6.75;;;8.00;63.50;;;;;;20923008;28;20045;-59
2023/02/14 04:35:26;;;;;;;10.68;7.25;;;8.00;63.60;;;;;;20921543;28;20059;-60
2023/02/14 04:45:28;;;;;;;9.40;7.60;;;8.10;63.80;;;;;;20920037;28;20440;-57
2023/02/14 04:55:40;;;;;;;13.63;7.65;;;8.20;64.10;;;;;;20918318;28;20045;-58
2023/02/14 05:05:42;;;;;;;10.57;7.30;;;8.20;64.20;;;;;;20919052;28;20040;-58
2023/02/14 05:15:44;;;;;;;12.68;7.75;;;8.20;64.10;;;;;;20915490;28;20166;-59
2023/02/14 05:25:50;;;;;;;11.43;8.10;;;8.20;64.00;;;;;;20917098;28;20079;-60
2023/02/14 05:35:52;;;;;;;12.25;8.02;;;8.10;63.90;;;;;;20915781;28;20060;-59
2023/02/14 05:45:54;;;;;;;8.93;6.80;;;8.00;63.90;;;;;;20914329;28;20052;-59
2023/02/14 05:55:55;;;;;;;10.15;7.95;;;8.00;64.00;;;;;;20913802;28;20052;-60
2023/02/14 06:05:57;;;;;;;12.15;8.18;;;8.00;63.80;;;;;;20912823;28;20052;-58
2023/02/14 06:15:58;;;;;;;13.80;10.02;;;7.90;63.90;;;;;;20913428;28;20393;-58
2023/02/14 06:26:01;;;;;;;15.95;9.32;;;7.90;64.00;;;;;;20912642;28;20110;-62
2023/02/14 06:36:03;;;;;;;16.15;9.00;;;7.90;64.10;;;;;;20911344;28;20057;-60
2023/02/14 06:46:04;;;;;;;11.45;7.70;;;7.80;63.90;;;;;;20911011;28;20053;-58
2023/02/14 06:56:06;;;;;;;14.70;8.15;;;7.80;63.40;;;;;;20911929;28;20134;-61
2023/02/14 07:06:09;;;;;;;13.45;8.50;;;7.60;63.80;;;;;;20912635;28;20041;-61
2023/02/14 07:16:11;;;;;;;13.52;9.32;;;7.50;64.00;;;;;;20921805;28;20049;-58
2023/02/14 07:26:16;;;;;;;16.05;10.65;;;7.50;64.10;;;;;;20924961;28;20045;-58
2023/02/14 07:36:18;;;;;;;17.75;10.70;;;7.60;64.20;;;;;;20924932;28;20045;-59
2023/02/14 07:46:20;;;;;;;20.02;13.43;;;7.50;64.30;;;;;;20924411;28;20048;-58
2023/02/14 07:56:22;;;;;;;17.23;11.77;;;7.50;64.40;;;;;;20923960;28;20080;-59
2023/02/14 08:06:26;;;;;;;18.08;11.85;;;7.50;64.40;;;;;;20922873;28;20045;-60
2023/02/14 08:16:28;;;;;;;15.45;11.57;;;7.50;64.50;;;;;;20920931;28;20098;-58
2023/02/14 08:26:31;;;;;;;13.15;10.00;;;7.60;64.20;;;;;;20919769;28;20045;-58
2023/02/14 08:36:33;;;;;;;13.60;9.50;;;7.70;64.10;;;;;;20919238;28;20515;-58
2023/02/14 08:46:35;;;;;;;17.08;9.50;;;7.80;63.80;;;;;;20917338;28;20052;-58
2023/02/14 08:56:37;;;;;;;13.98;9.77;;;7.80;63.70;;;;;;20917349;28;20080;-58
2023/02/14 09:06:39;;;;;;;15.93;11.02;;;7.80;63.60;;;;;;20916816;28;20067;-58
2023/02/14 09:16:41;;;;;;;15.18;9.32;;;8.00;62.50;;;;;;20916197;28;20064;-61
2023/02/14 09:26:43;;;;;;;11.30;8.40;;;8.30;61.90;;;;;;20915876;28;20056;-61
2023/02/14 09:36:44;;;;;;;11.45;8.27;;;8.40;61.10;;;;;;20914326;28;20049;-60
2023/02/14 09:46:52;;;;;;;13.07;8.15;;;8.40;61.00;;;;;;20915069;28;20044;-60
2023/02/14 09:57:18;;;;;;;9.88;7.32;;;8.50;61.10;;;;;;20914508;28;20540;-57
2023/02/14 10:07:57;;;;;;;10.15;7.35;;;8.70;60.30;;;;;;20914370;28;20072;-59
2023/02/14 10:18:17;;;;;;;11.98;8.13;;;8.90;59.90;;;;;;20821769;28;20061;-56
2023/02/14 10:28:28;;;;;;;11.07;8.55;;;8.80;59.70;;;;;;20820681;28;20045;-56
2023/02/14 10:38:33;;;;;;;13.23;8.63;;;9.10;59.00;;;;;;20820497;28;20140;-60
2023/02/14 10:49:08;;;;;;;14.05;8.50;;;9.20;58.30;;;;;;20851908;28;20084;-55
2023/02/14 10:59:22;;;;;;;37.25;10.30;;;9.40;58.10;;;;;;20927535;28;20136;-60
2023/02/14 11:09:23;;;;;;;9.73;6.90;;;9.70;57.40;;;;;;20925683;28;20044;-56
2023/02/14 11:19:33;;;;;;;12.65;7.50;;;10.10;56.30;;;;;;20926606;28;20064;-63
2023/02/14 11:29:46;;;;;;;13.32;7.22;;;10.10;56.80;;;;;;20923974;28;20049;-53
2023/02/14 11:39:50;;;;;;;10.52;6.47;;;10.40;56.70;;;;;;20924485;28;20075;-62
2023/02/14 11:50:09;;;;;;;15.35;6.25;;;10.60;55.30;;;;;;20922367;28;20051;-63
2023/02/14 12:00:16;;;;;;;9.48;5.32;;;10.60;57.70;;;;;;20922522;28;20113;-59
2023/02/14 12:10:27;;;;;;;11.50;6.45;;;11.70;52.10;;;;;;20919834;28;20128;-61
2023/02/14 12:20:54;;;;;;;6.80;5.18;;;11.10;53.40;;;;;;20923643;28;20049;-59
2023/02/14 12:30:55;;;;;;;7.95;5.10;;;11.20;53.90;;;;;;20919965;28;20080;-57
2023/02/14 12:41:08;;;;;;;8.27;6.00;;;11.50;52.40;;;;;;20918684;28;20049;-58
2023/02/14 12:51:40;;;;;;;8.13;5.13;;;11.70;51.90;;;;;;20919439;28;20537;-57
2023/02/14 13:02:18;;;;;;;9.30;5.43;;;11.60;52.10;;;;;;20916739;28;20136;-61
2023/02/14 13:12:36;;;;;;;7.22;5.50;;;11.60;52.00;;;;;;20915929;28;20076;-62
2023/02/14 13:22:39;;;;;;;8.27;5.18;;;11.70;52.10;;;;;;20917399;28;20049;-60
2023/02/14 13:32:45;;;;;;;9.13;4.93;;;11.50;52.20;;;;;;20916582;28;20056;-65
2023/02/14 13:42:49;;;;;;;7.38;5.63;;;11.90;51.40;;;;;;20915805;28;20076;-64
2023/02/14 13:52:50;;;;;;;7.90;5.20;;;11.90;51.30;;;;;;20917244;28;20469;-66
2023/02/14 14:02:53;;;;;;;10.93;4.90;;;12.00;51.30;;;;;;20913951;28;20358;-66
2023/02/14 14:12:56;;;;;;;7.03;5.70;;;12.10;51.30;;;;;;20911727;28;20049;-66
2023/02/14 14:23:00;;;;;;;8.07;5.43;;;12.00;51.30;;;;;;20912301;28;20577;-68
2023/02/14 14:33:13;;;;;;;8.07;4.22;;;12.10;51.20;;;;;;20912698;28;20136;-66
2023/02/14 14:43:34;;;;;;;6.40;4.30;;;12.20;51.10;;;;;;20911797;28;20057;-68
2023/02/14 14:54:11;;;;;;;5.82;4.75;;;12.20;51.30;;;;;;20910336;28;20095;-67
2023/02/14 15:04:23;;;;;;;7.78;5.35;;;12.20;51.20;;;;;;20909479;28;20135;-64
2023/02/14 15:14:27;;;;;;;8.50;3.70;;;12.20;51.30;;;;;;20910988;28;20504;-66
2023/02/14 15:24:32;;;;;;;8.43;3.75;;;12.10;51.90;;;;;;20910183;28;20120;-67
2023/02/14 15:34:37;;;;;;;5.80;4.00;;;12.10;51.80;;;;;;20916151;28;20077;-62
2023/02/14 15:44:39;;;;;;;5.85;3.45;;;12.00;51.70;;;;;;20924657;28;20477;-61
2023/02/14 15:54:45;;;;;;;6.95;3.95;;;12.10;51.70;;;;;;20923799;28;20079;-61
2023/02/14 16:04:46;;;;;;;9.80;3.90;;;12.10;51.70;;;;;;20923216;28;20076;-63
2023/02/14 16:15:08;;;;;;;5.15;3.40;;;12.20;51.10;;;;;;20922765;28;20478;-62
2023/02/14 16:25:10;;;;;;;7.70;3.83;;;12.20;51.00;;;;;;20921047;28;20087;-63
2023/02/14 16:35:18;;;;;;;7.60;3.60;;;12.20;51.20;;;;;;20919681;28;20110;-65
2023/02/14 16:45:20;;;;;;;7.38;4.43;;;12.10;51.40;;;;;;20918785;28;20052;-62
2023/02/14 16:55:22;;;;;;;7.93;3.17;;;12.10;52.00;;;;;;20918335;28;20049;-68
2023/02/14 17:05:23;;;;;;;7.05;3.75;;;12.00;51.90;;;;;;20918988;28;20044;-62
2023/02/14 17:15:27;;;;;;;6.50;3.85;;;11.90;51.80;;;;;;20917979;28;20472;-68
2023/02/14 17:25:30;;;;;;;5.83;3.67;;;11.80;52.10;;;;;;20915813;28;20051;-63
2023/02/14 17:35:34;;;;;;;7.88;4.70;;;11.70;52.50;;;;;;20915439;28;20094;-63
2023/02/14 17:45:35;;;;;;;8.75;5.43;;;11.50;53.10;;;;;;20915821;28;20045;-67
2023/02/14 17:55:37;;;;;;;9.10;5.78;;;11.40;53.90;;;;;;20914658;28;20048;-65
2023/02/14 18:05:39;;;;;;;8.93;6.03;;;11.30;54.50;;;;;;20913680;28;20077;-64
2023/02/14 18:15:40;;;;;;;10.50;5.38;;;11.20;54.90;;;;;;20914823;28;20497;-64
2023/02/14 18:25:48;;;;;;;11.52;6.72;;;11.10;55.30;;;;;;20913602;28;20052;-67
2023/02/14 18:35:51;;;;;;;16.02;7.25;;;10.90;55.90;;;;;;20911513;28;20055;-65
2023/02/14 18:45:53;;;;;;;10.50;7.70;;;10.80;56.10;;;;;;20912739;28;20087;-65
2023/02/14 18:55:56;;;;;;;15.80;9.20;;;10.70;56.80;;;;;;20912678;28;20056;-67
2023/02/14 19:05:59;;;;;;;10.45;7.28;;;10.70;57.20;;;;;;20912701;28;20146;-60
2023/02/14 19:16:09;;;;;;;8.43;6.95;;;10.60;57.60;;;;;;20926172;28;20060;-62
2023/02/14 19:26:22;;;;;;;11.65;7.50;;;10.50;58.00;;;;;;20926827;28;20060;-63
2023/02/14 19:36:24;;;;;;;10.85;7.72;;;10.30;58.50;;;;;;20925208;28;20053;-61
2023/02/14 19:46:27;;;;;;;8.73;7.20;;;10.20;58.80;;;;;;20924719;28;20057;-68
2023/02/14 19:56:31;;;;;;;11.45;8.30;;;10.20;59.20;;;;;;20922946;28;20049;-66
2023/02/14 20:06:34;;;;;;;13.43;9.50;;;10.10;59.50;;;;;;20924798;28;20045;-69
2023/02/14 20:16:36;;;;;;;12.68;9.05;;;10.10;59.60;;;;;;20921474;28;20164;-63
2023/02/14 20:26:40;;;;;;;11.35;8.73;;;10.00;60.00;;;;;;20921276;28;20426;-63
2023/02/14 20:36:42;;;;;;;15.52;9.07;;;9.90;60.20;;;;;;20919384;28;20064;-69
2023/02/14 20:46:45;;;;;;;13.48;8.82;;;9.80;60.50;;;;;;20919159;28;20106;-69
2023/02/14 20:56:49;;;;;;;10.55;8.10;;;9.70;60.80;;;;;;20920055;28;20131;-63
2023/02/14 21:06:52;;;;;;;13.50;9.00;;;9.70;60.90;;;;;;20920493;28;20115;-67
2023/02/14 21:16:54;;;;;;;11.65;8.05;;;9.70;61.10;;;;;;20918214;28;20440;-66
2023/02/14 21:26:56;;;;;;;11.93;8.95;;;9.70;61.30;;;;;;20915758;28;20115;-67
2023/02/14 21:36:57;;;;;;;11.85;8.93;;;9.60;61.50;;;;;;20915020;28;20132;-64
2023/02/14 21:46:59;;;;;;;12.38;9.25;;;9.70;61.60;;;;;;20915246;28;20409;-65
2023/02/14 21:57:01;;;;;;;15.85;12.07;;;9.60;61.60;;;;;;20914431;28;20187;-66
2023/02/14 22:07:03;;;;;;;12.73;8.35;;;9.60;61.70;;;;;;20912521;28;20045;-68
2023/02/14 22:17:15;;;;;;;15.30;9.77;;;9.60;61.80;;;;;;20913069;28;20102;-69
2023/02/14 22:27:20;;;;;;;13.48;9.80;;;9.50;61.80;;;;;;20915516;28;20053;-69
2023/02/14 22:37:24;;;;;;;13.38;8.95;;;9.50;61.80;;;;;;20912623;28;20087;-66
2023/02/14 22:47:25;;;;;;;11.95;8.95;;;9.50;61.90;;;;;;20926044;28;20049;-64
2023/02/14 22:57:27;;;;;;;11.38;9.15;;;9.50;61.90;;;;;;20928737;28;20415;-63
2023/02/14 23:07:28;;;;;;;12.27;9.13;;;9.50;62.10;;;;;;20927044;28;20045;-66
2023/02/14 23:27:50;;;;;;;13.98;9.57;;;9.50;62.00;;;;;;20925264;28;20074;-67
2023/02/14 23:37:53;;;;;;;11.85;8.77;;;9.40;62.00;;;;;;20923520;28;20135;-65
2023/02/14 23:48:03;;;;;;;12.07;9.73;;;9.30;62.20;;;;;;20924355;28;20053;-63
2023/02/14 23:58:05;;;;;;;12.10;9.20;;;9.30;62.30;;;;;;20921404;28;20136;-63
